createdAt,value
2018-07-08T00:00:58.390Z,22.39
2018-07-08T00:03:26.401Z,22.39
2018-07-08T00:05:54.547Z,22.38
2018-07-08T00:08:22.625Z,22.36
2018-07-08T00:10:54.048Z,22.34
2018-07-08T00:13:22.300Z,22.34
2018-07-08T00:15:49.949Z,22.33
2018-07-08T00:18:18.701Z,22.33
2018-07-08T00:20:47.026Z,22.32
2018-07-08T00:23:14.642Z,22.33
2018-07-08T00:25:43.246Z,22.31
2018-07-08T00:28:10.920Z,22.32
2018-07-08T00:30:38.550Z,22.32
2018-07-08T00:33:07.130Z,22.31
2018-07-08T00:35:35.305Z,22.32
2018-07-08T00:38:02.958Z,22.30
2018-07-08T00:40:31.314Z,22.30
2018-07-08T00:42:59.816Z,22.29
2018-07-08T00:45:27.464Z,22.29
2018-07-08T00:47:55.598Z,22.28
2018-07-08T00:50:23.216Z,22.29
2018-07-08T00:52:50.834Z,22.29
2018-07-08T00:55:18.469Z,22.26
2018-07-08T00:57:46.427Z,22.28
2018-07-08T01:00:27.738Z,22.27
2018-07-08T01:02:55.672Z,22.26
2018-07-08T01:05:23.561Z,22.26
2018-07-08T01:07:51.325Z,22.26
2018-07-08T01:10:19.385Z,22.26
2018-07-08T01:12:47.610Z,22.25
2018-07-08T01:15:15.766Z,22.26
2018-07-08T01:17:43.569Z,22.24
2018-07-08T01:20:11.196Z,22.24
2018-07-08T01:22:39.107Z,22.23
2018-07-08T01:25:11.801Z,22.22
2018-07-08T01:27:40.226Z,22.23
2018-07-08T01:30:08.310Z,22.21
2018-07-08T01:32:36.166Z,22.20
2018-07-08T01:35:04.213Z,22.20
2018-07-08T01:37:32.318Z,22.11
2018-07-08T01:39:59.938Z,22.22
2018-07-08T01:42:28.168Z,22.20
2018-07-08T01:44:55.855Z,22.19
2018-07-08T01:47:23.649Z,22.16
2018-07-08T01:49:52.057Z,22.17
2018-07-08T01:52:20.264Z,22.16
2018-07-08T01:54:48.442Z,22.16
2018-07-08T01:57:16.072Z,22.15
2018-07-08T01:59:43.990Z,22.14
2018-07-08T02:02:11.640Z,22.14
2018-07-08T02:04:39.330Z,22.14
2018-07-08T02:07:07.530Z,22.14
2018-07-08T02:09:35.166Z,22.11
2018-07-08T02:12:03.154Z,22.10
2018-07-08T02:14:31.169Z,22.09
2018-07-08T02:16:58.839Z,22.10
2018-07-08T02:19:26.538Z,22.08
2018-07-08T02:21:54.226Z,22.09
2018-07-08T02:24:22.098Z,22.08
2018-07-08T02:26:50.265Z,22.07
2018-07-08T02:29:18.220Z,22.07
2018-07-08T02:31:45.837Z,22.07
2018-07-08T02:34:13.837Z,22.07
2018-07-08T02:36:41.734Z,22.06
2018-07-08T02:39:09.471Z,22.05
2018-07-08T02:41:37.416Z,22.03
2018-07-08T02:44:05.428Z,22.03
2018-07-08T02:46:33.151Z,22.02
2018-07-08T02:49:01.049Z,22.03
2018-07-08T02:51:29.689Z,22.02
2018-07-08T02:53:57.368Z,22.02
2018-07-08T02:56:25.830Z,22.01
2018-07-08T02:58:53.926Z,22.00
2018-07-08T03:01:21.942Z,21.99
2018-07-08T03:03:50.296Z,22.00
2018-07-08T03:06:18.649Z,22.00
2018-07-08T03:08:46.289Z,21.99
2018-07-08T03:11:14.571Z,21.99
2018-07-08T03:13:43.096Z,21.97
2018-07-08T03:16:11.088Z,21.97
2018-07-08T03:18:39.296Z,21.97
2018-07-08T03:21:06.935Z,21.97
2018-07-08T03:23:34.617Z,21.96
2018-07-08T03:26:02.380Z,21.95
2018-07-08T03:28:30.653Z,21.94
2018-07-08T03:30:58.285Z,21.95
2018-07-08T03:33:26.366Z,21.96
2018-07-08T03:35:53.948Z,21.96
2018-07-08T03:38:22.303Z,21.96
2018-07-08T03:40:49.960Z,21.97
2018-07-08T03:43:18.328Z,21.97
2018-07-08T03:45:46.330Z,21.96
2018-07-08T03:48:14.552Z,21.96
2018-07-08T03:50:42.849Z,21.97
2018-07-08T03:53:10.790Z,21.98
2018-07-08T03:55:38.680Z,21.97
2018-07-08T03:58:06.384Z,21.97
2018-07-08T04:00:34.005Z,21.97
2018-07-08T04:03:01.684Z,21.98
2018-07-08T04:05:29.908Z,21.98
2018-07-08T04:07:57.683Z,22.00
2018-07-08T04:10:25.312Z,22.01
2018-07-08T04:12:52.950Z,22.00
2018-07-08T04:15:20.972Z,22.00
2018-07-08T04:17:53.022Z,22.00
2018-07-08T04:20:21.377Z,22.02
2018-07-08T04:22:49.767Z,22.03
2018-07-08T04:25:18.008Z,22.05
2018-07-08T04:27:45.674Z,22.05
2018-07-08T04:30:13.293Z,22.05
2018-07-08T04:32:40.919Z,22.06
2018-07-08T04:35:08.589Z,22.05
2018-07-08T04:37:36.212Z,22.08
2018-07-08T04:40:04.525Z,22.08
2018-07-08T04:42:32.214Z,22.09
2018-07-08T04:44:59.839Z,22.07
2018-07-08T04:47:27.744Z,22.09
2018-07-08T04:49:55.958Z,22.08
2018-07-08T04:52:23.605Z,22.09
2018-07-08T04:54:51.241Z,22.08
2018-07-08T04:57:19.319Z,22.11
2018-07-08T04:59:47.552Z,22.12
2018-07-08T05:02:15.265Z,22.11
2018-07-08T05:04:42.966Z,22.14
2018-07-08T05:07:11.331Z,22.14
2018-07-08T05:09:38.952Z,22.14
2018-07-08T05:12:06.824Z,22.14
2018-07-08T05:14:34.755Z,22.17
2018-07-08T05:17:02.543Z,22.18
2018-07-08T05:19:30.210Z,22.17
2018-07-08T05:21:57.829Z,22.17
2018-07-08T05:24:25.604Z,22.17
2018-07-08T05:26:53.334Z,22.19
2018-07-08T05:29:21.635Z,22.19
2018-07-08T05:31:49.648Z,22.20
2018-07-08T05:34:17.666Z,22.23
2018-07-08T05:36:45.586Z,22.24
2018-07-08T05:39:13.224Z,22.25
2018-07-08T05:41:41.145Z,22.25
2018-07-08T05:44:08.797Z,22.26
2018-07-08T05:46:36.465Z,22.27
2018-07-08T05:49:04.058Z,22.27
2018-07-08T05:51:31.903Z,22.29
2018-07-08T05:53:59.739Z,22.28
2018-07-08T05:56:27.380Z,22.30
2018-07-08T05:58:54.980Z,22.29
2018-07-08T06:01:22.609Z,22.30
2018-07-08T06:03:50.261Z,22.30
2018-07-08T06:06:18.601Z,22.32
2018-07-08T06:08:46.406Z,22.32
2018-07-08T06:11:14.030Z,22.33
2018-07-08T06:13:42.293Z,22.35
2018-07-08T06:16:10.130Z,22.34
2018-07-08T06:18:37.750Z,22.36
2018-07-08T06:21:06.070Z,22.37
2018-07-08T06:23:33.989Z,22.37
2018-07-08T06:26:02.030Z,22.37
2018-07-08T06:28:29.758Z,22.38
2018-07-08T06:30:57.613Z,22.40
2018-07-08T06:33:25.235Z,22.40
2018-07-08T06:35:53.521Z,22.43
2018-07-08T06:38:21.156Z,22.46
2018-07-08T06:40:49.096Z,22.49
2018-07-08T06:43:16.751Z,22.49
2018-07-08T06:45:44.392Z,22.50
2018-07-08T06:48:13.101Z,22.52
2018-07-08T06:50:40.805Z,22.54
2018-07-08T06:53:08.419Z,22.55
2018-07-08T06:55:36.386Z,22.55
2018-07-08T06:58:04.035Z,22.58
2018-07-08T07:00:31.964Z,22.60
2018-07-08T07:02:59.890Z,22.59
2018-07-08T07:05:27.746Z,22.57
2018-07-08T07:07:55.981Z,22.57
2018-07-08T07:10:23.607Z,22.60
2018-07-08T07:12:51.500Z,22.64
2018-07-08T07:15:19.145Z,22.64
2018-07-08T07:17:47.033Z,22.65
2018-07-08T07:20:14.786Z,22.66
2018-07-08T07:22:42.685Z,22.66
2018-07-08T07:25:10.329Z,22.66
2018-07-08T07:27:38.340Z,22.67
2018-07-08T07:30:05.992Z,22.68
2018-07-08T07:32:33.949Z,22.67
2018-07-08T07:35:02.013Z,22.67
2018-07-08T07:37:29.714Z,22.68
2018-07-08T07:39:57.354Z,22.70
2018-07-08T07:42:25.217Z,22.70
2018-07-08T07:44:53.218Z,22.72
2018-07-08T07:47:21.149Z,22.73
2018-07-08T07:49:48.913Z,22.74
2018-07-08T07:52:16.577Z,22.73
2018-07-08T07:54:44.194Z,22.75
2018-07-08T07:57:12.781Z,22.76
2018-07-08T07:59:40.755Z,22.76
2018-07-08T08:02:08.743Z,22.76
2018-07-08T08:04:36.364Z,22.77
2018-07-08T08:07:04.467Z,22.79
2018-07-08T08:09:32.380Z,22.80
2018-07-08T08:12:00.012Z,22.81
2018-07-08T08:14:28.049Z,22.82
2018-07-08T08:16:55.662Z,22.81
2018-07-08T08:19:23.366Z,22.83
2018-07-08T08:21:51.403Z,22.84
2018-07-08T08:24:19.633Z,22.86
2018-07-08T08:26:47.298Z,22.88
2018-07-08T08:29:15.435Z,22.88
2018-07-08T08:31:43.366Z,22.89
2018-07-08T08:35:15.996Z,22.90
2018-07-08T08:37:47.777Z,22.91
2018-07-08T08:40:16.245Z,22.92
2018-07-08T08:42:44.460Z,22.93
2018-07-08T08:45:13.570Z,22.94
2018-07-08T08:47:41.552Z,22.95
2018-07-08T08:50:10.214Z,22.96
2018-07-08T08:52:37.894Z,22.98
2018-07-08T08:55:06.560Z,22.98
2018-07-08T08:57:34.216Z,22.99
2018-07-08T09:00:02.085Z,23.01
2018-07-08T09:02:30.297Z,23.02
2018-07-08T09:04:58.053Z,23.02
2018-07-08T09:07:25.984Z,23.02
2018-07-08T09:09:53.596Z,23.04
2018-07-08T09:12:21.525Z,23.05
2018-07-08T09:14:49.787Z,23.07
2018-07-08T09:17:17.746Z,23.07
2018-07-08T09:19:45.737Z,23.08
2018-07-08T09:22:13.379Z,23.11
2018-07-08T09:24:41.148Z,23.12
2018-07-08T09:27:08.739Z,23.13
2018-07-08T09:29:36.370Z,23.14
2018-07-08T09:32:04.254Z,23.14
2018-07-08T09:34:32.250Z,23.15
2018-07-08T09:37:00.607Z,23.16
2018-07-08T09:39:28.468Z,23.16
2018-07-08T09:41:56.302Z,23.17
2018-07-08T09:44:23.927Z,23.20
2018-07-08T09:46:51.921Z,23.20
2018-07-08T09:49:19.561Z,23.21
2018-07-08T09:51:47.901Z,23.23
2018-07-08T09:54:16.429Z,23.23
2018-07-08T09:56:44.076Z,23.25
2018-07-08T09:59:11.971Z,23.25
2018-07-08T10:01:45.182Z,23.26
2018-07-08T10:04:14.376Z,23.28
2018-07-08T10:06:43.029Z,23.27
2018-07-08T10:09:12.989Z,23.30
2018-07-08T10:11:40.696Z,23.32
2018-07-08T10:14:10.175Z,23.32
2018-07-08T10:16:38.590Z,23.32
2018-07-08T10:19:06.597Z,23.23
2018-07-08T10:21:34.375Z,23.35
2018-07-08T10:24:02.159Z,23.37
2018-07-08T10:26:29.910Z,23.37
2018-07-08T10:31:35.943Z,23.42
2018-07-08T10:34:03.766Z,23.42
2018-07-08T10:36:31.961Z,23.43
2018-07-08T10:38:59.897Z,23.47
2018-07-08T10:41:27.534Z,23.48
2018-07-08T10:43:55.500Z,23.50
2018-07-08T10:46:23.688Z,23.51
2018-07-08T10:48:51.382Z,23.54
2018-07-08T10:51:19.395Z,23.55
2018-07-08T10:53:47.067Z,23.59
2018-07-08T10:56:14.677Z,23.58
2018-07-08T10:58:42.633Z,23.61
2018-07-08T11:01:10.317Z,23.62
2018-07-08T11:03:37.966Z,23.65
2018-07-08T11:06:06.424Z,23.68
2018-07-08T11:08:34.048Z,23.68
2018-07-08T11:11:02.109Z,23.70
2018-07-08T11:13:29.737Z,23.71
2018-07-08T11:15:57.689Z,23.73
2018-07-08T11:18:25.392Z,23.76
2018-07-08T11:20:53.132Z,23.77
2018-07-08T11:23:20.739Z,23.75
2018-07-08T11:25:48.633Z,23.79
2018-07-08T11:28:16.605Z,23.80
2018-07-08T11:30:44.784Z,23.82
2018-07-08T11:33:12.776Z,23.84
2018-07-08T11:35:40.419Z,23.86
2018-07-08T11:38:08.394Z,23.88
2018-07-08T11:40:36.348Z,23.90
2018-07-08T11:43:04.267Z,23.93
2018-07-08T11:45:32.236Z,23.94
2018-07-08T11:48:00.260Z,23.97
2018-07-08T11:50:28.234Z,23.98
2018-07-08T11:52:55.926Z,24.00
2018-07-08T11:55:23.563Z,24.03
2018-07-08T11:57:51.661Z,24.06
2018-07-08T12:00:19.286Z,24.08
2018-07-08T12:02:46.971Z,24.10
2018-07-08T12:05:15.331Z,24.11
2018-07-08T12:07:43.264Z,24.14
2018-07-08T12:10:11.256Z,24.17
2018-07-08T12:12:39.149Z,24.19
2018-07-08T12:15:06.834Z,24.21
2018-07-08T12:17:34.819Z,24.22
2018-07-08T12:20:02.479Z,24.24
2018-07-08T12:22:30.118Z,24.26
2018-07-08T12:24:57.758Z,24.27
2018-07-08T12:27:25.727Z,24.30
2018-07-08T12:29:53.987Z,24.32
2018-07-08T12:32:21.836Z,24.33
2018-07-08T12:34:49.436Z,24.35
2018-07-08T12:37:17.374Z,24.38
2018-07-08T12:39:45.310Z,24.40
2018-07-08T12:42:12.922Z,24.41
2018-07-08T12:44:40.761Z,24.43
2018-07-08T12:47:08.254Z,24.46
2018-07-08T12:49:35.916Z,24.47
2018-07-08T12:52:03.660Z,24.49
2018-07-08T12:54:31.797Z,24.51
2018-07-08T12:56:59.469Z,24.53
2018-07-08T12:59:27.825Z,24.55
2018-07-08T13:01:55.674Z,24.56
2018-07-08T13:04:23.424Z,24.59
2018-07-08T13:06:52.049Z,24.61
2018-07-08T13:09:19.674Z,24.63
2018-07-08T13:11:47.444Z,24.64
2018-07-08T13:14:15.031Z,24.66
2018-07-08T13:16:42.878Z,24.68
2018-07-08T13:19:10.608Z,24.70
2018-07-08T13:21:38.778Z,24.72
2018-07-08T13:24:06.408Z,24.73
2018-07-08T13:26:34.323Z,24.75
2018-07-08T13:29:01.957Z,24.77
2018-07-08T13:31:30.074Z,24.79
2018-07-08T13:33:58.246Z,24.81
2018-07-08T13:36:25.872Z,24.82
2018-07-08T13:38:53.785Z,24.84
2018-07-08T13:41:21.366Z,24.86
2018-07-08T13:43:49.240Z,24.88
2018-07-08T13:46:16.876Z,24.89
2018-07-08T13:48:44.521Z,24.91
2018-07-08T13:51:12.108Z,24.92
2018-07-08T13:53:40.127Z,24.95
2018-07-08T13:56:07.755Z,24.97
2018-07-08T13:58:35.354Z,24.98
2018-07-08T14:01:03.047Z,25.00
2018-07-08T14:03:30.772Z,25.03
2018-07-08T14:05:58.422Z,25.05
2018-07-08T14:08:26.330Z,25.06
2018-07-08T14:10:53.956Z,25.09
2018-07-08T14:13:21.784Z,25.11
2018-07-08T14:15:49.428Z,25.12
2018-07-08T14:18:17.356Z,25.14
2018-07-08T14:20:45.062Z,25.16
2018-07-08T14:23:12.778Z,25.19
2018-07-08T14:25:40.455Z,25.26
2018-07-08T14:28:08.647Z,25.40
2018-07-08T14:30:36.714Z,25.60
2018-07-08T14:33:04.345Z,25.96
2018-07-08T14:35:32.297Z,26.84
2018-07-08T14:38:00.043Z,28.46
2018-07-08T14:40:27.960Z,29.67
2018-07-08T14:42:55.586Z,30.43
2018-07-08T14:45:23.918Z,30.93
2018-07-08T14:47:51.850Z,31.06
2018-07-08T14:50:19.525Z,31.28
2018-07-08T14:52:47.208Z,31.50
2018-07-08T14:55:14.845Z,31.66
2018-07-08T14:57:42.812Z,31.54
2018-07-08T15:00:10.492Z,30.99
2018-07-08T15:02:38.136Z,30.91
2018-07-08T15:05:06.070Z,29.37
2018-07-08T15:07:33.729Z,28.20
2018-07-08T15:10:01.508Z,27.59
2018-07-08T15:12:29.393Z,27.11
2018-07-08T15:14:56.999Z,26.69
2018-07-08T15:17:24.640Z,26.44
2018-07-08T15:19:52.526Z,26.28
2018-07-08T15:22:20.142Z,26.17
2018-07-08T15:24:47.881Z,26.09
2018-07-08T15:27:15.489Z,26.04
2018-07-08T15:29:43.128Z,26.10
2018-07-08T15:32:10.938Z,26.06
2018-07-08T15:34:38.987Z,26.00
2018-07-08T15:37:06.848Z,26.10
2018-07-08T15:39:34.465Z,26.05
2018-07-08T15:42:02.603Z,26.02
2018-07-08T15:44:30.717Z,25.91
2018-07-08T15:46:59.148Z,25.83
2018-07-08T15:49:27.075Z,25.82
2018-07-08T15:51:54.743Z,25.84
2018-07-08T15:54:23.081Z,25.87
2018-07-08T15:56:50.709Z,25.86
2018-07-08T15:59:18.826Z,25.88
2018-07-08T16:01:46.438Z,25.96
2018-07-08T16:04:14.384Z,25.88
2018-07-08T16:06:42.467Z,25.88
2018-07-08T16:09:10.449Z,25.91
2018-07-08T16:11:38.877Z,25.91
2018-07-08T16:14:07.078Z,25.79
2018-07-08T16:16:34.746Z,26.02
2018-07-08T16:19:02.641Z,26.14
2018-07-08T16:21:31.145Z,26.36
2018-07-08T16:23:59.325Z,26.50
2018-07-08T16:26:27.280Z,26.62
2018-07-08T16:28:55.035Z,26.68
2018-07-08T16:31:22.720Z,26.69
2018-07-08T16:33:50.374Z,26.69
2018-07-08T16:36:18.033Z,26.64
2018-07-08T16:38:45.645Z,26.62
2018-07-08T16:41:13.284Z,26.60
2018-07-08T16:43:41.841Z,26.58
2018-07-08T16:46:09.480Z,26.52
2018-07-08T16:48:37.418Z,26.48
2018-07-08T16:51:05.072Z,26.60
2018-07-08T16:53:32.692Z,26.66
2018-07-08T16:56:00.301Z,26.83
2018-07-08T16:58:27.933Z,27.04
2018-07-08T17:00:55.525Z,27.20
2018-07-08T17:03:23.422Z,27.38
2018-07-08T17:05:52.017Z,27.54
2018-07-08T17:08:20.293Z,27.63
2018-07-08T17:10:47.989Z,27.70
2018-07-08T17:13:15.673Z,27.73
2018-07-08T17:15:43.997Z,27.76
2018-07-08T17:18:11.614Z,27.82
2018-07-08T17:20:39.232Z,27.88
2018-07-08T17:23:06.904Z,27.96
2018-07-08T17:25:34.794Z,28.02
2018-07-08T17:28:02.448Z,28.08
2018-07-08T17:30:30.692Z,28.11
2018-07-08T17:32:58.605Z,28.14
2018-07-08T17:35:26.534Z,28.19
2018-07-08T17:37:54.330Z,28.21
2018-07-08T17:40:22.517Z,28.25
2018-07-08T17:42:50.418Z,28.27
2018-07-08T17:45:18.454Z,28.28
2018-07-08T17:47:46.087Z,28.29
2018-07-08T17:50:13.735Z,28.30
2018-07-08T17:52:41.518Z,28.31
2018-07-08T17:55:09.406Z,28.31
2018-07-08T17:57:37.706Z,28.30
2018-07-08T18:00:06.057Z,28.31
2018-07-08T18:02:33.720Z,28.30
2018-07-08T18:05:01.520Z,28.28
2018-07-08T18:07:29.417Z,28.26
2018-07-08T18:09:57.417Z,28.22
2018-07-08T18:12:25.285Z,28.19
2018-07-08T18:14:53.262Z,28.17
2018-07-08T18:17:20.942Z,28.14
2018-07-08T18:19:48.554Z,28.11
2018-07-08T18:22:16.343Z,28.08
2018-07-08T18:24:43.951Z,28.05
2018-07-08T18:27:11.900Z,28.02
2018-07-08T18:29:39.789Z,27.97
2018-07-08T18:32:07.710Z,27.94
2018-07-08T18:34:35.561Z,27.91
2018-07-08T18:37:03.783Z,27.88
2018-07-08T18:39:31.958Z,27.83
2018-07-08T18:41:59.992Z,27.75
2018-07-08T18:44:27.636Z,27.73
2018-07-08T18:46:55.628Z,27.70
2018-07-08T18:49:23.745Z,27.66
2018-07-08T18:51:51.341Z,27.60
2018-07-08T18:54:19.354Z,27.58
2018-07-08T18:56:46.961Z,27.53
2018-07-08T18:59:14.915Z,27.49
2018-07-08T19:01:42.532Z,27.45
2018-07-08T19:04:10.133Z,27.41
2018-07-08T19:06:38.088Z,27.35
2018-07-08T19:09:06.299Z,27.27
2018-07-08T19:11:34.240Z,27.21
2018-07-08T19:14:03.050Z,27.12
2018-07-08T19:16:31.038Z,27.06
2018-07-08T19:18:58.912Z,26.96
2018-07-08T19:21:27.116Z,26.82
2018-07-08T19:23:55.441Z,26.65
2018-07-08T19:26:23.306Z,26.50
2018-07-08T19:28:50.937Z,26.37
2018-07-08T19:31:19.181Z,26.26
2018-07-08T19:33:46.817Z,26.18
2018-07-08T19:36:14.572Z,26.09
2018-07-08T19:38:42.195Z,26.02
2018-07-08T19:41:09.819Z,25.94
2018-07-08T19:43:37.518Z,25.88
2018-07-08T19:46:05.335Z,25.79
2018-07-08T19:48:33.087Z,25.73
2018-07-08T19:51:00.920Z,25.65
2018-07-08T19:53:29.103Z,25.52
2018-07-08T19:55:57.759Z,25.40
2018-07-08T19:58:25.374Z,25.33
2018-07-08T20:00:53.394Z,25.28
2018-07-08T20:03:21.257Z,25.22
2018-07-08T20:05:48.889Z,25.17
2018-07-08T20:08:16.539Z,25.09
2018-07-08T20:10:44.438Z,25.03
2018-07-08T20:13:12.112Z,24.97
2018-07-08T20:15:39.742Z,24.97
2018-07-08T20:18:07.393Z,24.89
2018-07-08T20:20:35.370Z,24.83
2018-07-08T20:23:03.373Z,24.77
2018-07-08T20:25:30.973Z,24.67
2018-07-08T20:27:58.939Z,24.61
2018-07-08T20:30:26.580Z,24.57
2018-07-08T20:32:54.317Z,24.52
2018-07-08T20:35:22.582Z,24.46
2018-07-08T20:37:50.357Z,24.40
2018-07-08T20:40:17.996Z,24.31
2018-07-08T20:42:45.987Z,24.25
2018-07-08T20:45:14.225Z,24.19
2018-07-08T20:47:42.456Z,24.13
2018-07-08T20:50:10.204Z,24.09
2018-07-08T20:52:37.922Z,24.04
2018-07-08T20:55:05.536Z,23.99
2018-07-08T20:57:33.343Z,24.02
2018-07-08T21:00:01.329Z,23.98
2018-07-08T21:02:29.552Z,23.95
2018-07-08T21:04:57.546Z,23.90
2018-07-08T21:07:25.379Z,23.86
2018-07-08T21:09:53.865Z,23.82
2018-07-08T21:12:21.478Z,23.78
2018-07-08T21:14:49.213Z,23.75
2018-07-08T21:17:17.365Z,23.72
2018-07-08T21:19:46.254Z,23.67
2018-07-08T21:22:14.169Z,23.64
2018-07-08T21:24:41.808Z,23.60
2018-07-08T21:27:09.513Z,23.58
2018-07-08T21:29:37.556Z,23.53
2018-07-08T21:32:05.286Z,23.51
2018-07-08T21:34:32.994Z,23.47
2018-07-08T21:37:00.690Z,23.49
2018-07-08T21:39:28.288Z,23.47
2018-07-08T21:41:56.186Z,23.45
2018-07-08T21:44:25.224Z,23.42
2018-07-08T21:46:52.929Z,23.38
2018-07-08T21:49:20.546Z,23.37
2018-07-08T21:51:48.369Z,23.35
2018-07-08T21:54:15.983Z,23.31
2018-07-08T21:56:43.706Z,23.29
2018-07-08T21:59:11.440Z,23.26
2018-07-08T22:02:17.591Z,23.24
2018-07-08T22:04:45.277Z,23.20
2018-07-08T22:07:18.327Z,23.18
2018-07-08T22:09:46.010Z,23.15
2018-07-08T22:12:13.709Z,23.11
2018-07-08T22:14:41.743Z,23.07
2018-07-08T22:17:09.650Z,23.08
2018-07-08T22:19:38.544Z,23.10
2018-07-08T22:22:06.617Z,23.10
2018-07-08T22:24:34.248Z,23.10
2018-07-08T22:27:01.987Z,23.06
2018-07-08T22:29:31.175Z,23.05
2018-07-08T22:31:59.297Z,23.02
2018-07-08T22:34:27.268Z,23.01
2018-07-08T22:36:55.808Z,22.98
2018-07-08T22:39:23.477Z,22.96
2018-07-08T22:41:51.157Z,22.94
2018-07-08T22:44:18.782Z,22.91
2018-07-08T22:46:46.882Z,22.89
2018-07-08T22:49:14.825Z,22.88
2018-07-08T22:51:42.458Z,22.88
2018-07-08T22:54:10.123Z,22.87
2018-07-08T22:56:38.369Z,22.84
2018-07-08T22:59:06.043Z,22.84
2018-07-08T23:02:44.616Z,22.81
2018-07-08T23:05:12.662Z,22.79
2018-07-08T23:07:41.225Z,22.78
2018-07-08T23:10:10.090Z,22.74
2018-07-08T23:12:38.313Z,22.74
2018-07-08T23:15:06.733Z,22.74
2018-07-08T23:17:34.390Z,22.72
2018-07-08T23:20:02.517Z,22.68
2018-07-08T23:22:41.531Z,22.66
2018-07-08T23:25:10.333Z,22.64
2018-07-08T23:27:38.014Z,22.63
2018-07-08T23:30:05.810Z,22.62
2018-07-08T23:32:33.583Z,22.61
2018-07-08T23:35:01.469Z,22.60
2018-07-08T23:37:29.358Z,22.59
2018-07-08T23:39:57.048Z,22.57
2018-07-08T23:42:25.078Z,22.55
2018-07-08T23:44:53.409Z,22.55
2018-07-08T23:47:21.313Z,22.53
2018-07-08T23:49:49.015Z,22.53
2018-07-08T23:52:17.093Z,22.52
2018-07-08T23:54:44.725Z,22.51
2018-07-08T23:57:12.765Z,22.50
2018-07-08T23:59:40.746Z,22.50
